createdAt,value
2023-02-23T00:00:47.140Z,19.80
2023-02-23T00:06:33.835Z,17.20
2023-02-23T00:12:01.094Z,18.23
2023-02-23T00:17:26.231Z,16.77
2023-02-23T00:22:54.168Z,17.17
2023-02-23T00:28:10.051Z,19.53
2023-02-23T00:33:24.468Z,18.97
2023-02-23T00:38:36.212Z,20.00
2023-02-23T00:43:54.426Z,19.17
2023-02-23T00:49:20.566Z,18.97
2023-02-23T00:54:47.561Z,19.30
2023-02-23T01:00:01.852Z,23.60
2023-02-23T01:05:27.336Z,19.57
2023-02-23T01:11:07.309Z,18.70
2023-02-23T01:16:22.069Z,21.43
2023-02-23T01:21:47.086Z,19.87
2023-02-23T01:27:20.182Z,20.13
2023-02-23T01:32:46.163Z,19.67
2023-02-23T01:44:11.029Z,18.97
2023-02-23T01:49:45.056Z,24.17
2023-02-23T01:55:09.261Z,20.13
2023-02-23T02:00:47.424Z,21.13
2023-02-23T02:06:14.345Z,22.33
2023-02-23T02:11:44.694Z,22.30
2023-02-23T02:17:29.463Z,22.53
2023-02-23T02:23:17.591Z,20.23
2023-02-23T02:29:06.442Z,19.63
2023-02-23T02:34:53.351Z,21.10
2023-02-23T02:40:51.033Z,19.80
2023-02-23T02:46:10.160Z,20.27
2023-02-23T02:51:37.774Z,20.27
2023-02-23T02:57:04.263Z,22.10
2023-02-23T03:02:40.807Z,22.50
2023-02-23T03:08:15.291Z,23.90
2023-02-23T03:20:44.454Z,23.27
2023-02-23T05:13:37.103Z,24.03
2023-02-23T06:31:27.292Z,30.93
2023-02-23T06:36:39.529Z,32.00
2023-02-23T06:42:17.566Z,31.63
2023-02-23T06:52:54.361Z,30.10
2023-02-23T06:58:03.363Z,29.40
2023-02-23T07:03:06.865Z,28.67
2023-02-23T07:08:11.181Z,27.40
2023-02-23T07:13:13.849Z,29.80
2023-02-23T07:18:16.590Z,27.73
2023-02-23T07:23:22.246Z,30.70
2023-02-23T07:28:27.329Z,29.53
2023-02-23T07:33:30.064Z,30.73
2023-02-23T07:38:34.617Z,30.17
2023-02-23T07:43:37.692Z,30.67
2023-02-23T07:48:44.570Z,29.13
2023-02-23T07:53:49.022Z,32.70
2023-02-23T07:58:51.685Z,31.40
2023-02-23T08:03:54.392Z,31.10
2023-02-23T08:08:59.959Z,29.17
2023-02-23T08:14:02.642Z,28.60
2023-02-23T08:19:05.323Z,26.17
2023-02-23T08:24:10.836Z,28.30
2023-02-23T08:29:13.578Z,25.73
2023-02-23T08:34:16.314Z,31.67
2023-02-23T08:39:20.846Z,31.33
2023-02-23T08:44:23.665Z,22.73
2023-02-23T08:49:28.077Z,25.37
2023-02-23T09:00:44.513Z,23.07
2023-02-23T09:05:47.778Z,22.87
2023-02-23T09:11:18.426Z,26.07
2023-02-23T09:16:37.516Z,24.87
2023-02-23T09:21:53.819Z,26.60
2023-02-23T09:27:12.660Z,24.47
2023-02-23T09:38:22.111Z,22.97
2023-02-23T09:49:17.146Z,23.03
2023-02-23T09:54:34.535Z,22.20
2023-02-23T09:59:40.570Z,25.37
2023-02-23T10:04:47.708Z,23.73
2023-02-23T10:10:16.204Z,20.70
2023-02-23T10:15:48.254Z,19.92
2023-02-23T10:21:02.244Z,19.90
2023-02-23T10:26:30.316Z,20.25
2023-02-23T10:31:59.993Z,16.73
2023-02-23T10:37:05.542Z,19.98
2023-02-23T10:42:13.384Z,18.17
2023-02-23T10:47:20.087Z,17.00
2023-02-23T10:52:28.680Z,17.65
2023-02-23T10:57:34.122Z,16.77
2023-02-23T11:02:38.220Z,19.25
2023-02-23T11:07:41.014Z,18.85
2023-02-23T11:12:43.704Z,15.63
2023-02-23T11:17:47.704Z,17.42
2023-02-23T11:22:52.246Z,14.63
2023-02-23T11:27:56.994Z,14.95
2023-02-23T11:33:09.542Z,14.05
2023-02-23T11:38:17.481Z,14.70
2023-02-23T11:43:21.882Z,13.52
2023-02-23T11:48:33.455Z,13.93
2023-02-23T11:53:37.901Z,10.93
2023-02-23T11:58:44.183Z,14.43
2023-02-23T12:03:51.378Z,15.93
2023-02-23T12:09:12.964Z,11.98
2023-02-23T12:14:26.613Z,11.52
2023-02-23T12:19:35.266Z,12.93
2023-02-23T12:24:46.113Z,13.63
2023-02-23T12:30:00.901Z,11.35
2023-02-23T12:35:11.426Z,13.65
2023-02-23T12:40:17.905Z,15.40
2023-02-23T12:45:29.215Z,12.32
2023-02-23T12:50:44.254Z,12.98
2023-02-23T12:56:13.767Z,15.45
2023-02-23T13:01:34.405Z,12.27
2023-02-23T13:06:50.661Z,15.48
2023-02-23T13:12:45.637Z,15.40
2023-02-23T13:17:59.526Z,15.10
2023-02-23T13:23:17.050Z,12.63
2023-02-23T13:34:47.773Z,11.45
2023-02-23T13:40:05.640Z,13.48
2023-02-23T13:45:25.496Z,9.45
2023-02-23T13:50:34.928Z,14.90
2023-02-23T13:55:51.563Z,13.40
2023-02-23T14:01:04.412Z,13.68
2023-02-23T14:06:07.757Z,14.32
2023-02-23T14:11:28.083Z,12.55
2023-02-23T14:16:31.044Z,14.13
2023-02-23T14:21:38.002Z,18.20
2023-02-23T14:27:08.300Z,16.45
2023-02-23T14:32:31.750Z,15.60
2023-02-23T14:37:36.931Z,16.40
2023-02-23T14:42:42.263Z,16.67
2023-02-23T14:47:48.148Z,15.43
2023-02-23T14:52:52.381Z,16.83
2023-02-23T14:57:57.952Z,13.60
2023-02-23T15:03:02.220Z,17.83
2023-02-23T15:08:10.750Z,20.65
2023-02-23T15:13:28.788Z,21.55
2023-02-23T15:25:09.792Z,30.88
2023-02-23T15:31:23.922Z,27.05
2023-02-23T15:36:34.903Z,30.65
2023-02-23T15:42:42.850Z,30.48
2023-02-23T15:47:52.771Z,27.00
2023-02-23T16:50:58.733Z,32.40
2023-02-23T16:56:27.516Z,28.27
2023-02-23T17:01:36.602Z,30.15
2023-02-23T17:07:27.532Z,31.90
2023-02-23T17:12:33.674Z,31.50
2023-02-23T17:17:55.277Z,32.95
2023-02-23T17:23:06.742Z,35.67
2023-02-23T17:28:13.466Z,33.70
2023-02-23T17:33:17.317Z,32.97
2023-02-23T17:38:38.024Z,30.35
2023-02-23T17:43:50.096Z,36.97
2023-02-23T17:48:55.201Z,35.13
2023-02-23T17:54:02.240Z,39.20
2023-02-23T17:59:07.143Z,39.83
2023-02-23T18:04:10.260Z,40.80
2023-02-23T18:09:15.320Z,43.83
2023-02-23T18:14:18.574Z,43.87
2023-02-23T18:19:22.542Z,44.83
2023-02-23T18:24:28.578Z,45.67
2023-02-23T18:29:34.073Z,44.53
2023-02-23T18:34:37.892Z,48.63
2023-02-23T18:39:43.505Z,51.33
2023-02-23T18:44:47.191Z,51.57
2023-02-23T18:49:53.709Z,49.67
2023-02-23T18:55:06.399Z,52.03
2023-02-23T19:00:17.279Z,55.77
2023-02-23T19:05:22.099Z,52.13
2023-02-23T19:10:28.603Z,53.93
2023-02-23T19:15:31.797Z,58.67
2023-02-23T19:20:40.297Z,59.10
2023-02-23T20:34:02.773Z,68.90
2023-02-23T21:51:48.859Z,62.93
2023-02-23T21:57:03.811Z,59.00
2023-02-23T22:02:09.553Z,69.57
2023-02-23T22:07:21.827Z,74.50
2023-02-23T22:12:28.574Z,83.13
2023-02-23T22:17:35.522Z,79.30
2023-02-23T22:22:39.967Z,83.20
2023-02-23T22:27:44.040Z,93.50
2023-02-23T22:32:49.343Z,101.07
2023-02-23T22:37:56.670Z,102.07
2023-02-23T22:42:59.455Z,101.20
2023-02-23T22:48:07.364Z,101.03
2023-02-23T22:53:15.944Z,106.50
2023-02-23T22:58:20.212Z,122.13
2023-02-23T23:03:23.070Z,112.20
2023-02-23T23:08:27.078Z,118.70
2023-02-23T23:13:31.839Z,135.90
2023-02-23T23:18:34.501Z,113.00
2023-02-23T23:23:38.498Z,113.90
2023-02-23T23:28:41.903Z,110.57
2023-02-23T23:33:48.449Z,135.03
2023-02-23T23:38:56.337Z,110.63
2023-02-23T23:44:00.274Z,112.80
2023-02-23T23:49:06.218Z,104.47
2023-02-23T23:54:10.463Z,103.53
2023-02-23T23:59:16.191Z,91.70
